UAL1769 KRDU-KSFO
Flight info
| Callsign | UAL1769 |
|---|---|
| Flight time | N/A |
| Altitude | 32000 |
| Route | SHPRD4 SHPRD HMV CUBIM IIU KG66K KP69G/N0457F340 KD69A EKR LOOLO DTA RUMPS OAL INYOE DYAMD5 |
| Aircraft | A319/M-SDE3GHIRWYZ/LB1 |
Departure
| Time | 2026-05-07 02:03 |
|---|---|
| Airport | Raleigh-Durham International Airport (KRDU) |
Arrival
| Time | N/A |
|---|---|
| Airport | San Francisco International Airport (KSFO) |
| Time | Latitude | Longitude | Altitude | Speed | Heading |
|---|---|---|---|---|---|
| 2026-05-07 01:14 | 35.87506 | -78.79588 | 392 ft | 0 kts | 316° |
| 2026-05-07 01:46 | 35.87492 | -78.79568 | 392 ft | 4 kts | 294° |
| 2026-05-07 01:46 | 35.87487 | -78.79538 | 392 ft | 4 kts | 255° |
| 2026-05-07 01:47 | 35.87497 | -78.79514 | 392 ft | 1 kts | 225° |
| 2026-05-07 01:53 | 35.87494 | -78.79518 | 392 ft | 1 kts | 225° |
| 2026-05-07 01:53 | 35.87484 | -78.79530 | 392 ft | 3 kts | 225° |
| 2026-05-07 01:53 | 35.87460 | -78.79562 | 392 ft | 6 kts | 225° |
| 2026-05-07 01:53 | 35.87426 | -78.79603 | 391 ft | 8 kts | 225° |
| 2026-05-07 01:54 | 35.87411 | -78.79662 | 391 ft | 8 kts | 295° |
| 2026-05-07 01:54 | 35.87454 | -78.79714 | 391 ft | 9 kts | 315° |
| 2026-05-07 01:54 | 35.87499 | -78.79769 | 391 ft | 9 kts | 313° |
| 2026-05-07 01:54 | 35.87554 | -78.79769 | 391 ft | 9 kts | 43° |
| 2026-05-07 01:55 | 35.87600 | -78.79710 | 391 ft | 10 kts | 45° |
| 2026-05-07 01:55 | 35.87653 | -78.79647 | 391 ft | 11 kts | 45° |
| 2026-05-07 01:55 | 35.87707 | -78.79580 | 391 ft | 12 kts | 46° |
| 2026-05-07 01:55 | 35.87766 | -78.79506 | 391 ft | 13 kts | 45° |
| 2026-05-07 01:56 | 35.87831 | -78.79426 | 392 ft | 14 kts | 45° |
| 2026-05-07 01:56 | 35.87899 | -78.79342 | 392 ft | 14 kts | 45° |
| 2026-05-07 01:56 | 35.87971 | -78.79253 | 392 ft | 15 kts | 44° |
| 2026-05-07 01:56 | 35.88046 | -78.79161 | 392 ft | 16 kts | 45° |
| 2026-05-07 01:57 | 35.88123 | -78.79063 | 391 ft | 16 kts | 49° |
| 2026-05-07 01:57 | 35.88201 | -78.78963 | 391 ft | 16 kts | 45° |
| 2026-05-07 01:57 | 35.88281 | -78.78865 | 391 ft | 16 kts | 45° |
| 2026-05-07 01:57 | 35.88353 | -78.78776 | 391 ft | 14 kts | 45° |
| 2026-05-07 01:58 | 35.88416 | -78.78698 | 391 ft | 12 kts | 45° |
| 2026-05-07 01:58 | 35.88477 | -78.78624 | 392 ft | 12 kts | 44° |
| 2026-05-07 01:58 | 35.88529 | -78.78559 | 392 ft | 10 kts | 46° |
| 2026-05-07 01:58 | 35.88572 | -78.78504 | 392 ft | 8 kts | 46° |
| 2026-05-07 01:59 | 35.88613 | -78.78455 | 392 ft | 8 kts | 44° |
| 2026-05-07 01:59 | 35.88662 | -78.78396 | 392 ft | 12 kts | 45° |
| 2026-05-07 01:59 | 35.88724 | -78.78317 | 392 ft | 14 kts | 45° |
| 2026-05-07 01:59 | 35.88798 | -78.78225 | 391 ft | 16 kts | 45° |
| 2026-05-07 02:00 | 35.88886 | -78.78113 | 391 ft | 21 kts | 46° |
| 2026-05-07 02:00 | 35.88979 | -78.77981 | 391 ft | 15 kts | 66° |
| 2026-05-07 02:00 | 35.89019 | -78.77874 | 391 ft | 15 kts | 51° |
| 2026-05-07 02:00 | 35.89100 | -78.77780 | 391 ft | 17 kts | 42° |
| 2026-05-07 02:01 | 35.89166 | -78.77692 | 392 ft | 12 kts | 47° |
| 2026-05-07 02:01 | 35.89223 | -78.77641 | 392 ft | 7 kts | 359° |
| 2026-05-07 02:01 | 35.89261 | -78.77678 | 392 ft | 7 kts | 316° |
| 2026-05-07 02:01 | 35.89295 | -78.77719 | 392 ft | 8 kts | 314° |
| 2026-05-07 02:02 | 35.89337 | -78.77771 | 393 ft | 9 kts | 314° |
| 2026-05-07 02:02 | 35.89368 | -78.77811 | 393 ft | 3 kts | 307° |
| 2026-05-07 02:02 | 35.89346 | -78.77851 | 392 ft | 10 kts | 225° |
| 2026-05-07 02:02 | 35.89183 | -78.78054 | 391 ft | 70 kts | 225° |
| 2026-05-07 02:03 | 35.88663 | -78.78694 | 393 ft | 140 kts | 225° |
| 2026-05-07 02:03 | 35.87910 | -78.79645 | 791 ft | 154 kts | 225° |
| 2026-05-07 02:03 | 35.87152 | -78.80607 | 1304 ft | 157 kts | 225° |
| 2026-05-07 02:03 | 35.86404 | -78.81555 | 1754 ft | 156 kts | 225° |
| 2026-05-07 02:04 | 35.85593 | -78.82539 | 1861 ft | 170 kts | 225° |
| 2026-05-07 02:04 | 35.84724 | -78.83580 | 1996 ft | 184 kts | 224° |
| 2026-05-07 02:04 | 35.83764 | -78.84728 | 2103 ft | 202 kts | 225° |
| 2026-05-07 02:04 | 35.82706 | -78.85993 | 2266 ft | 219 kts | 224° |
| 2026-05-07 02:05 | 35.81609 | -78.87297 | 2783 ft | 220 kts | 224° |
| 2026-05-07 02:05 | 35.80496 | -78.88612 | 3280 ft | 223 kts | 225° |
| 2026-05-07 02:05 | 35.79353 | -78.89920 | 3793 ft | 224 kts | 225° |
| 2026-05-07 02:05 | 35.78333 | -78.91354 | 4268 ft | 227 kts | 241° |
| 2026-05-07 02:06 | 35.77908 | -78.93292 | 4347 ft | 248 kts | 269° |
| 2026-05-07 02:06 | 35.78216 | -78.95380 | 5117 ft | 248 kts | 279° |
| 2026-05-07 02:06 | 35.78575 | -78.97443 | 5819 ft | 250 kts | 279° |
| 2026-05-07 02:06 | 35.78910 | -78.99524 | 5965 ft | 247 kts | 278° |
| 2026-05-07 02:07 | 35.79229 | -79.01597 | 6005 ft | 246 kts | 278° |
| 2026-05-07 02:07 | 35.79855 | -79.05741 | 6006 ft | 246 kts | 278° |
| 2026-05-07 02:07 | 35.80167 | -79.07791 | 6007 ft | 247 kts | 277° |
| 2026-05-07 02:08 | 35.80483 | -79.09870 | 6010 ft | 248 kts | 277° |
| 2026-05-07 02:08 | 35.80806 | -79.12003 | 6543 ft | 251 kts | 277° |
| 2026-05-07 02:08 | 35.81125 | -79.14092 | 7270 ft | 252 kts | 278° |
| 2026-05-07 02:08 | 35.81454 | -79.16243 | 7990 ft | 253 kts | 278° |
| 2026-05-07 02:09 | 35.81777 | -79.18360 | 8693 ft | 256 kts | 278° |
| 2026-05-07 02:09 | 35.82106 | -79.20522 | 9393 ft | 258 kts | 278° |
| 2026-05-07 02:09 | 35.82437 | -79.22707 | 10066 ft | 261 kts | 278° |
| 2026-05-07 02:09 | 35.82781 | -79.24999 | 10233 ft | 283 kts | 278° |
| 2026-05-07 02:10 | 35.83152 | -79.27473 | 10362 ft | 304 kts | 278° |
| 2026-05-07 02:10 | 35.83475 | -79.30094 | 10711 ft | 313 kts | 270° |
| 2026-05-07 02:10 | 35.83328 | -79.32780 | 11246 ft | 316 kts | 264° |
| 2026-05-07 02:10 | 35.83123 | -79.35489 | 11789 ft | 320 kts | 264° |
| 2026-05-07 02:11 | 35.82918 | -79.38222 | 11968 ft | 320 kts | 264° |
| 2026-05-07 02:11 | 35.82716 | -79.40948 | 12010 ft | 319 kts | 264° |
| 2026-05-07 02:11 | 35.82511 | -79.43669 | 12018 ft | 319 kts | 264° |
| 2026-05-07 02:11 | 35.82304 | -79.46391 | 12016 ft | 319 kts | 264° |
| 2026-05-07 02:12 | 35.82100 | -79.49109 | 12015 ft | 319 kts | 264° |
| 2026-05-07 02:12 | 35.81891 | -79.51828 | 12102 ft | 321 kts | 264° |
| 2026-05-07 02:12 | 35.81604 | -79.54568 | 12655 ft | 322 kts | 259° |
| 2026-05-07 02:12 | 35.81192 | -79.57253 | 13242 ft | 324 kts | 258° |
| 2026-05-07 02:13 | 35.80729 | -79.59972 | 13801 ft | 326 kts | 257° |
| 2026-05-07 02:13 | 35.80244 | -79.62710 | 14314 ft | 328 kts | 258° |
| 2026-05-07 02:13 | 35.79755 | -79.65464 | 14791 ft | 330 kts | 258° |
| 2026-05-07 02:13 | 35.79269 | -79.68233 | 15293 ft | 332 kts | 258° |
| 2026-05-07 02:14 | 35.78784 | -79.71020 | 15820 ft | 334 kts | 258° |
| 2026-05-07 02:14 | 35.78300 | -79.73819 | 16355 ft | 335 kts | 259° |
| 2026-05-07 02:14 | 35.77816 | -79.76639 | 16893 ft | 336 kts | 259° |
| 2026-05-07 02:14 | 35.77333 | -79.79463 | 17439 ft | 338 kts | 259° |
| 2026-05-07 02:15 | 35.76848 | -79.82298 | 18007 ft | 338 kts | 259° |
| 2026-05-07 02:15 | 35.76362 | -79.85135 | 18532 ft | 339 kts | 260° |